sensor_id;sensor_type;location;lat;lon;timestamp;P1;durP1;ratioP1;P2;durP2;ratioP2
52934;SDS011;38802;50.198;19.796;2022-07-24T00:01:30;43.70;;;33.40;;
52934;SDS011;38802;50.198;19.796;2022-07-24T00:03:57;42.70;;;34.60;;
52934;SDS011;38802;50.198;19.796;2022-07-24T00:06:24;48.50;;;36.20;;
52934;SDS011;38802;50.198;19.796;2022-07-24T00:08:51;52.20;;;37.60;;
52934;SDS011;38802;50.198;19.796;2022-07-24T00:11:18;48.50;;;34.80;;
52934;SDS011;38802;50.198;19.796;2022-07-24T00:13:45;51.30;;;37.60;;
52934;SDS011;38802;50.198;19.796;2022-07-24T00:16:11;57.00;;;39.10;;
52934;SDS011;38802;50.198;19.796;2022-07-24T00:18:39;64.60;;;44.40;;
52934;SDS011;38802;50.198;19.796;2022-07-24T00:21:06;70.00;;;44.90;;
52934;SDS011;38802;50.198;19.796;2022-07-24T00:23:34;65.70;;;44.90;;
52934;SDS011;38802;50.198;19.796;2022-07-24T00:26:01;73.40;;;47.80;;
52934;SDS011;38802;50.198;19.796;2022-07-24T00:28:27;76.30;;;52.60;;
52934;SDS011;38802;50.198;19.796;2022-07-24T00:30:54;84.80;;;55.60;;
52934;SDS011;38802;50.198;19.796;2022-07-24T00:33:21;74.30;;;52.30;;
52934;SDS011;38802;50.198;19.796;2022-07-24T00:35:48;84.30;;;55.00;;
52934;SDS011;38802;50.198;19.796;2022-07-24T00:38:15;74.20;;;50.90;;
52934;SDS011;38802;50.198;19.796;2022-07-24T00:40:41;77.20;;;50.80;;
52934;SDS011;38802;50.198;19.796;2022-07-24T00:43:08;75.10;;;53.30;;
52934;SDS011;38802;50.198;19.796;2022-07-24T00:45:35;67.20;;;48.90;;
52934;SDS011;38802;50.198;19.796;2022-07-24T00:48:02;74.80;;;49.50;;
52934;SDS011;38802;50.198;19.796;2022-07-24T00:50:30;62.30;;;46.10;;
52934;SDS011;38802;50.198;19.796;2022-07-24T00:52:57;60.80;;;45.20;;
52934;SDS011;38802;50.198;19.796;2022-07-24T00:55:25;56.30;;;41.50;;
52934;SDS011;38802;50.198;19.796;2022-07-24T00:57:52;52.30;;;39.80;;
52934;SDS011;38802;50.198;19.796;2022-07-24T01:00:19;51.30;;;38.60;;
52934;SDS011;38802;50.198;19.796;2022-07-24T01:02:47;50.10;;;39.30;;
52934;SDS011;38802;50.198;19.796;2022-07-24T01:05:16;49.20;;;38.10;;
52934;SDS011;38802;50.198;19.796;2022-07-24T01:07:43;46.00;;;38.00;;
52934;SDS011;38802;50.198;19.796;2022-07-24T01:10:10;46.60;;;37.00;;
52934;SDS011;38802;50.198;19.796;2022-07-24T01:12:37;43.40;;;35.90;;
52934;SDS011;38802;50.198;19.796;2022-07-24T01:15:06;48.90;;;35.50;;
52934;SDS011;38802;50.198;19.796;2022-07-24T01:17:37;52.30;;;36.60;;
52934;SDS011;38802;50.198;19.796;2022-07-24T01:20:05;45.00;;;35.30;;
52934;SDS011;38802;50.198;19.796;2022-07-24T01:22:33;53.80;;;38.10;;
52934;SDS011;38802;50.198;19.796;2022-07-24T01:25:00;44.90;;;35.50;;
52934;SDS011;38802;50.198;19.796;2022-07-24T01:27:27;44.60;;;37.10;;
52934;SDS011;38802;50.198;19.796;2022-07-24T01:29:53;49.80;;;38.10;;
52934;SDS011;38802;50.198;19.796;2022-07-24T01:32:21;49.20;;;37.30;;
52934;SDS011;38802;50.198;19.796;2022-07-24T01:34:48;49.80;;;38.50;;
52934;SDS011;38802;50.198;19.796;2022-07-24T01:37:15;59.10;;;43.20;;
52934;SDS011;38802;50.198;19.796;2022-07-24T01:39:41;48.30;;;39.80;;
52934;SDS011;38802;50.198;19.796;2022-07-24T01:42:08;44.50;;;35.90;;
52934;SDS011;38802;50.198;19.796;2022-07-24T01:44:35;52.30;;;41.50;;
52934;SDS011;38802;50.198;19.796;2022-07-24T01:47:01;58.30;;;43.60;;
52934;SDS011;38802;50.198;19.796;2022-07-24T01:49:28;53.40;;;39.90;;
52934;SDS011;38802;50.198;19.796;2022-07-24T01:51:55;57.50;;;40.50;;
52934;SDS011;38802;50.198;19.796;2022-07-24T01:54:22;58.70;;;42.20;;
52934;SDS011;38802;50.198;19.796;2022-07-24T01:56:49;55.50;;;41.00;;
52934;SDS011;38802;50.198;19.796;2022-07-24T01:59:15;58.80;;;43.10;;
52934;SDS011;38802;50.198;19.796;2022-07-24T02:01:42;55.60;;;41.30;;
52934;SDS011;38802;50.198;19.796;2022-07-24T02:04:09;54.10;;;42.50;;
52934;SDS011;38802;50.198;19.796;2022-07-24T02:06:36;53.60;;;39.70;;
52934;SDS011;38802;50.198;19.796;2022-07-24T02:09:03;54.70;;;41.50;;
52934;SDS011;38802;50.198;19.796;2022-07-24T02:11:30;50.70;;;40.80;;
52934;SDS011;38802;50.198;19.796;2022-07-24T02:13:57;57.40;;;42.00;;
52934;SDS011;38802;50.198;19.796;2022-07-24T02:16:26;50.80;;;37.20;;
52934;SDS011;38802;50.198;19.796;2022-07-24T02:18:54;49.20;;;36.10;;
52934;SDS011;38802;50.198;19.796;2022-07-24T02:21:20;44.30;;;33.00;;
52934;SDS011;38802;50.198;19.796;2022-07-24T02:23:47;47.20;;;36.90;;
52934;SDS011;38802;50.198;19.796;2022-07-24T02:26:15;45.30;;;35.70;;
52934;SDS011;38802;50.198;19.796;2022-07-24T02:28:42;43.30;;;36.30;;
52934;SDS011;38802;50.198;19.796;2022-07-24T02:31:08;42.00;;;34.60;;
52934;SDS011;38802;50.198;19.796;2022-07-24T02:33:35;44.90;;;35.30;;
52934;SDS011;38802;50.198;19.796;2022-07-24T02:36:02;44.60;;;33.00;;
52934;SDS011;38802;50.198;19.796;2022-07-24T02:38:29;40.40;;;32.10;;
52934;SDS011;38802;50.198;19.796;2022-07-24T02:40:56;38.30;;;31.50;;
52934;SDS011;38802;50.198;19.796;2022-07-24T02:43:23;40.40;;;31.60;;
52934;SDS011;38802;50.198;19.796;2022-07-24T02:45:50;39.00;;;32.40;;
52934;SDS011;38802;50.198;19.796;2022-07-24T02:48:19;36.90;;;31.90;;
52934;SDS011;38802;50.198;19.796;2022-07-24T02:50:46;35.30;;;30.60;;
52934;SDS011;38802;50.198;19.796;2022-07-24T02:53:13;33.70;;;29.50;;
52934;SDS011;38802;50.198;19.796;2022-07-24T02:55:40;33.20;;;29.30;;
52934;SDS011;38802;50.198;19.796;2022-07-24T02:58:07;36.40;;;29.40;;
52934;SDS011;38802;50.198;19.796;2022-07-24T03:00:33;31.00;;;26.20;;
52934;SDS011;38802;50.198;19.796;2022-07-24T03:03:00;36.70;;;30.80;;
52934;SDS011;38802;50.198;19.796;2022-07-24T03:05:27;32.50;;;28.40;;
52934;SDS011;38802;50.198;19.796;2022-07-24T03:07:54;34.80;;;27.30;;
52934;SDS011;38802;50.198;19.796;2022-07-24T03:10:21;33.80;;;29.80;;
52934;SDS011;38802;50.198;19.796;2022-07-24T03:12:48;28.80;;;25.30;;
52934;SDS011;38802;50.198;19.796;2022-07-24T03:15:15;32.00;;;28.00;;
52934;SDS011;38802;50.198;19.796;2022-07-24T03:17:52;32.60;;;29.00;;
52934;SDS011;38802;50.198;19.796;2022-07-24T03:20:24;31.60;;;28.10;;
52934;SDS011;38802;50.198;19.796;2022-07-24T03:22:53;33.00;;;29.40;;
52934;SDS011;38802;50.198;19.796;2022-07-24T03:25:20;40.00;;;30.10;;
52934;SDS011;38802;50.198;19.796;2022-07-24T03:27:47;30.30;;;25.50;;
52934;SDS011;38802;50.198;19.796;2022-07-24T03:30:15;35.80;;;31.20;;
52934;SDS011;38802;50.198;19.796;2022-07-24T03:32:43;31.80;;;28.40;;
52934;SDS011;38802;50.198;19.796;2022-07-24T03:35:10;35.10;;;30.60;;
52934;SDS011;38802;50.198;19.796;2022-07-24T03:37:38;34.40;;;30.50;;
52934;SDS011;38802;50.198;19.796;2022-07-24T03:40:05;33.30;;;29.20;;
52934;SDS011;38802;50.198;19.796;2022-07-24T03:42:33;41.10;;;31.90;;
52934;SDS011;38802;50.198;19.796;2022-07-24T03:45:00;36.90;;;29.30;;
52934;SDS011;38802;50.198;19.796;2022-07-24T03:47:27;32.80;;;29.30;;
52934;SDS011;38802;50.198;19.796;2022-07-24T03:49:54;29.40;;;24.90;;
52934;SDS011;38802;50.198;19.796;2022-07-24T03:52:21;29.10;;;24.30;;
52934;SDS011;38802;50.198;19.796;2022-07-24T03:54:50;28.60;;;22.90;;
52934;SDS011;38802;50.198;19.796;2022-07-24T03:57:17;31.40;;;25.20;;
52934;SDS011;38802;50.198;19.796;2022-07-24T03:59:44;28.40;;;24.50;;
52934;SDS011;38802;50.198;19.796;2022-07-24T04:02:11;28.30;;;25.40;;
52934;SDS011;38802;50.198;19.796;2022-07-24T04:04:38;31.80;;;23.40;;
52934;SDS011;38802;50.198;19.796;2022-07-24T04:07:05;31.30;;;25.80;;
52934;SDS011;38802;50.198;19.796;2022-07-24T04:09:32;34.20;;;27.70;;
52934;SDS011;38802;50.198;19.796;2022-07-24T04:11:59;34.40;;;24.90;;
52934;SDS011;38802;50.198;19.796;2022-07-24T04:14:26;35.50;;;26.10;;
52934;SDS011;38802;50.198;19.796;2022-07-24T04:16:53;28.40;;;23.90;;
52934;SDS011;38802;50.198;19.796;2022-07-24T04:19:20;30.00;;;24.00;;
52934;SDS011;38802;50.198;19.796;2022-07-24T04:21:46;30.10;;;23.10;;
52934;SDS011;38802;50.198;19.796;2022-07-24T04:24:13;32.80;;;24.90;;
52934;SDS011;38802;50.198;19.796;2022-07-24T04:26:40;35.30;;;25.40;;
52934;SDS011;38802;50.198;19.796;2022-07-24T04:29:07;38.30;;;25.50;;
52934;SDS011;38802;50.198;19.796;2022-07-24T04:31:34;26.30;;;23.40;;
52934;SDS011;38802;50.198;19.796;2022-07-24T04:34:01;28.90;;;21.90;;
52934;SDS011;38802;50.198;19.796;2022-07-24T04:36:28;26.30;;;21.80;;
52934;SDS011;38802;50.198;19.796;2022-07-24T04:38:55;23.90;;;20.30;;
52934;SDS011;38802;50.198;19.796;2022-07-24T04:41:22;25.30;;;20.20;;
52934;SDS011;38802;50.198;19.796;2022-07-24T04:43:49;23.30;;;19.30;;
52934;SDS011;38802;50.198;19.796;2022-07-24T04:46:16;23.30;;;19.80;;
52934;SDS011;38802;50.198;19.796;2022-07-24T04:48:43;24.30;;;20.30;;
52934;SDS011;38802;50.198;19.796;2022-07-24T04:51:10;23.10;;;19.80;;
52934;SDS011;38802;50.198;19.796;2022-07-24T04:53:37;24.70;;;17.40;;
52934;SDS011;38802;50.198;19.796;2022-07-24T04:56:04;22.50;;;16.80;;
52934;SDS011;38802;50.198;19.796;2022-07-24T04:58:31;18.90;;;17.00;;
52934;SDS011;38802;50.198;19.796;2022-07-24T05:00:58;18.70;;;16.70;;
52934;SDS011;38802;50.198;19.796;2022-07-24T05:03:25;17.80;;;16.00;;
52934;SDS011;38802;50.198;19.796;2022-07-24T05:05:52;19.60;;;14.40;;
52934;SDS011;38802;50.198;19.796;2022-07-24T05:08:18;19.90;;;14.30;;
52934;SDS011;38802;50.198;19.796;2022-07-24T05:10:45;13.30;;;12.20;;
52934;SDS011;38802;50.198;19.796;2022-07-24T05:13:12;15.00;;;13.40;;
52934;SDS011;38802;50.198;19.796;2022-07-24T05:15:39;13.10;;;11.90;;
52934;SDS011;38802;50.198;19.796;2022-07-24T05:18:09;14.80;;;13.10;;
52934;SDS011;38802;50.198;19.796;2022-07-24T05:20:36;11.70;;;10.50;;
52934;SDS011;38802;50.198;19.796;2022-07-24T05:23:03;13.20;;;10.20;;
52934;SDS011;38802;50.198;19.796;2022-07-24T05:25:29;11.10;;;10.00;;
52934;SDS011;38802;50.198;19.796;2022-07-24T05:27:56;10.90;;;9.80;;
52934;SDS011;38802;50.198;19.796;2022-07-24T05:30:23;9.90;;;8.90;;
52934;SDS011;38802;50.198;19.796;2022-07-24T05:32:50;10.40;;;9.40;;
52934;SDS011;38802;50.198;19.796;2022-07-24T05:35:16;9.60;;;8.00;;
52934;SDS011;38802;50.198;19.796;2022-07-24T05:37:55;12.60;;;8.50;;
52934;SDS011;38802;50.198;19.796;2022-07-24T05:40:22;10.00;;;9.00;;
52934;SDS011;38802;50.198;19.796;2022-07-24T05:42:49;8.70;;;7.70;;
52934;SDS011;38802;50.198;19.796;2022-07-24T05:45:16;8.50;;;7.60;;
52934;SDS011;38802;50.198;19.796;2022-07-24T05:47:43;9.40;;;6.80;;
52934;SDS011;38802;50.198;19.796;2022-07-24T05:50:11;14.50;;;7.60;;
52934;SDS011;38802;50.198;19.796;2022-07-24T05:52:39;8.20;;;6.30;;
52934;SDS011;38802;50.198;19.796;2022-07-24T05:55:07;9.60;;;6.00;;
52934;SDS011;38802;50.198;19.796;2022-07-24T05:57:43;10.90;;;6.50;;
52934;SDS011;38802;50.198;19.796;2022-07-24T06:00:13;11.50;;;6.20;;
52934;SDS011;38802;50.198;19.796;2022-07-24T06:02:45;6.90;;;6.20;;
52934;SDS011;38802;50.198;19.796;2022-07-24T06:05:13;11.20;;;6.00;;
52934;SDS011;38802;50.198;19.796;2022-07-24T06:07:40;9.40;;;5.80;;
52934;SDS011;38802;50.198;19.796;2022-07-24T06:10:08;12.70;;;5.80;;
52934;SDS011;38802;50.198;19.796;2022-07-24T06:12:40;9.70;;;5.80;;
52934;SDS011;38802;50.198;19.796;2022-07-24T06:15:07;8.00;;;5.40;;
52934;SDS011;38802;50.198;19.796;2022-07-24T06:17:35;7.00;;;4.80;;
52934;SDS011;38802;50.198;19.796;2022-07-24T06:20:03;7.50;;;4.90;;
52934;SDS011;38802;50.198;19.796;2022-07-24T06:22:31;7.20;;;5.10;;
52934;SDS011;38802;50.198;19.796;2022-07-24T06:24:57;8.50;;;3.90;;
52934;SDS011;38802;50.198;19.796;2022-07-24T06:27:24;4.30;;;3.90;;
52934;SDS011;38802;50.198;19.796;2022-07-24T06:29:51;5.10;;;3.90;;
52934;SDS011;38802;50.198;19.796;2022-07-24T06:32:18;5.40;;;4.50;;
52934;SDS011;38802;50.198;19.796;2022-07-24T06:34:44;10.90;;;5.40;;
52934;SDS011;38802;50.198;19.796;2022-07-24T06:37:11;4.40;;;4.10;;
52934;SDS011;38802;50.198;19.796;2022-07-24T06:39:38;9.00;;;4.80;;
52934;SDS011;38802;50.198;19.796;2022-07-24T06:42:05;5.20;;;4.10;;
52934;SDS011;38802;50.198;19.796;2022-07-24T06:44:35;4.50;;;4.10;;
52934;SDS011;38802;50.198;19.796;2022-07-24T06:47:05;5.80;;;4.50;;
52934;SDS011;38802;50.198;19.796;2022-07-24T06:49:32;7.30;;;3.80;;
52934;SDS011;38802;50.198;19.796;2022-07-24T06:51:59;7.90;;;4.20;;
52934;SDS011;38802;50.198;19.796;2022-07-24T06:54:25;6.90;;;3.40;;
52934;SDS011;38802;50.198;19.796;2022-07-24T06:56:52;3.90;;;3.20;;
52934;SDS011;38802;50.198;19.796;2022-07-24T06:59:19;6.20;;;3.70;;
52934;SDS011;38802;50.198;19.796;2022-07-24T07:01:46;3.30;;;3.00;;
52934;SDS011;38802;50.198;19.796;2022-07-24T07:04:13;7.90;;;3.20;;
52934;SDS011;38802;50.198;19.796;2022-07-24T07:06:40;4.50;;;3.00;;
52934;SDS011;38802;50.198;19.796;2022-07-24T07:09:10;10.70;;;3.20;;
52934;SDS011;38802;50.198;19.796;2022-07-24T07:11:37;7.60;;;3.10;;
52934;SDS011;38802;50.198;19.796;2022-07-24T07:14:04;5.90;;;3.00;;
52934;SDS011;38802;50.198;19.796;2022-07-24T07:16:31;6.70;;;3.20;;
52934;SDS011;38802;50.198;19.796;2022-07-24T07:18:58;5.30;;;3.00;;
52934;SDS011;38802;50.198;19.796;2022-07-24T07:21:25;5.40;;;2.80;;
52934;SDS011;38802;50.198;19.796;2022-07-24T07:23:51;3.70;;;2.80;;
52934;SDS011;38802;50.198;19.796;2022-07-24T07:26:18;7.10;;;3.50;;
52934;SDS011;38802;50.198;19.796;2022-07-24T07:28:46;6.60;;;3.40;;
52934;SDS011;38802;50.198;19.796;2022-07-24T07:31:13;4.00;;;3.50;;
52934;SDS011;38802;50.198;19.796;2022-07-24T07:33:40;5.10;;;3.20;;
52934;SDS011;38802;50.198;19.796;2022-07-24T07:36:07;11.30;;;3.40;;
52934;SDS011;38802;50.198;19.796;2022-07-24T07:38:35;4.30;;;3.20;;
52934;SDS011;38802;50.198;19.796;2022-07-24T07:41:04;3.40;;;3.00;;
52934;SDS011;38802;50.198;19.796;2022-07-24T07:43:31;5.70;;;3.40;;
52934;SDS011;38802;50.198;19.796;2022-07-24T07:45:58;7.60;;;3.00;;
52934;SDS011;38802;50.198;19.796;2022-07-24T07:48:25;3.30;;;3.00;;
52934;SDS011;38802;50.198;19.796;2022-07-24T07:50:53;4.90;;;3.20;;
52934;SDS011;38802;50.198;19.796;2022-07-24T07:53:20;4.30;;;3.40;;
52934;SDS011;38802;50.198;19.796;2022-07-24T07:55:46;3.90;;;3.40;;
52934;SDS011;38802;50.198;19.796;2022-07-24T07:58:20;4.80;;;3.70;;
52934;SDS011;38802;50.198;19.796;2022-07-24T08:00:48;4.20;;;3.40;;
52934;SDS011;38802;50.198;19.796;2022-07-24T08:03:15;6.60;;;3.30;;
52934;SDS011;38802;50.198;19.796;2022-07-24T08:05:49;3.80;;;3.20;;
52934;SDS011;38802;50.198;19.796;2022-07-24T08:08:24;3.60;;;3.20;;
52934;SDS011;38802;50.198;19.796;2022-07-24T08:10:52;3.20;;;2.70;;
52934;SDS011;38802;50.198;19.796;2022-07-24T08:13:19;5.20;;;3.30;;
52934;SDS011;38802;50.198;19.796;2022-07-24T08:15:47;3.90;;;3.00;;
52934;SDS011;38802;50.198;19.796;2022-07-24T08:18:15;4.30;;;3.90;;
52934;SDS011;38802;50.198;19.796;2022-07-24T08:20:42;3.80;;;3.50;;
52934;SDS011;38802;50.198;19.796;2022-07-24T08:23:12;5.00;;;3.20;;
52934;SDS011;38802;50.198;19.796;2022-07-24T08:25:39;8.40;;;3.40;;
52934;SDS011;38802;50.198;19.796;2022-07-24T08:28:06;7.30;;;3.10;;
52934;SDS011;38802;50.198;19.796;2022-07-24T08:30:32;6.80;;;3.20;;
52934;SDS011;38802;50.198;19.796;2022-07-24T08:32:59;3.10;;;2.80;;
52934;SDS011;38802;50.198;19.796;2022-07-24T08:35:26;6.60;;;3.10;;
52934;SDS011;38802;50.198;19.796;2022-07-24T08:37:59;7.40;;;3.00;;
52934;SDS011;38802;50.198;19.796;2022-07-24T08:40:29;3.30;;;2.70;;
52934;SDS011;38802;50.198;19.796;2022-07-24T08:43:01;3.50;;;2.70;;
52934;SDS011;38802;50.198;19.796;2022-07-24T08:45:29;3.00;;;2.60;;
52934;SDS011;38802;50.198;19.796;2022-07-24T08:47:58;6.30;;;3.10;;
52934;SDS011;38802;50.198;19.796;2022-07-24T08:50:26;5.90;;;3.50;;
52934;SDS011;38802;50.198;19.796;2022-07-24T08:52:53;3.60;;;2.70;;
52934;SDS011;38802;50.198;19.796;2022-07-24T08:55:20;3.30;;;2.60;;
52934;SDS011;38802;50.198;19.796;2022-07-24T08:57:47;3.60;;;3.00;;
52934;SDS011;38802;50.198;19.796;2022-07-24T09:00:14;3.50;;;3.20;;
52934;SDS011;38802;50.198;19.796;2022-07-24T09:02:41;4.00;;;2.90;;
52934;SDS011;38802;50.198;19.796;2022-07-24T09:05:08;8.10;;;3.60;;
52934;SDS011;38802;50.198;19.796;2022-07-24T09:07:36;6.40;;;3.20;;
52934;SDS011;38802;50.198;19.796;2022-07-24T09:10:05;6.40;;;3.60;;
52934;SDS011;38802;50.198;19.796;2022-07-24T09:12:35;5.60;;;3.50;;
52934;SDS011;38802;50.198;19.796;2022-07-24T09:15:16;4.70;;;3.10;;
52934;SDS011;38802;50.198;19.796;2022-07-24T09:17:49;3.20;;;2.90;;
52934;SDS011;38802;50.198;19.796;2022-07-24T09:20:21;4.70;;;3.50;;
52934;SDS011;38802;50.198;19.796;2022-07-24T09:22:51;4.70;;;3.10;;
52934;SDS011;38802;50.198;19.796;2022-07-24T09:25:21;3.80;;;3.00;;
52934;SDS011;38802;50.198;19.796;2022-07-24T09:27:55;5.70;;;3.40;;
52934;SDS011;38802;50.198;19.796;2022-07-24T09:33:27;3.70;;;3.10;;
52934;SDS011;38802;50.198;19.796;2022-07-24T09:36:01;2.90;;;2.60;;
52934;SDS011;38802;50.198;19.796;2022-07-24T09:38:51;4.50;;;2.90;;
52934;SDS011;38802;50.198;19.796;2022-07-24T09:41:21;4.90;;;3.30;;
52934;SDS011;38802;50.198;19.796;2022-07-24T09:43:56;4.40;;;3.30;;
52934;SDS011;38802;50.198;19.796;2022-07-24T09:46:27;5.00;;;3.20;;
52934;SDS011;38802;50.198;19.796;2022-07-24T09:48:56;2.90;;;2.30;;
52934;SDS011;38802;50.198;19.796;2022-07-24T09:51:26;2.80;;;2.60;;
52934;SDS011;38802;50.198;19.796;2022-07-24T09:53:55;4.80;;;2.80;;
52934;SDS011;38802;50.198;19.796;2022-07-24T09:56:23;2.90;;;2.50;;
52934;SDS011;38802;50.198;19.796;2022-07-24T09:58:57;3.30;;;2.50;;
52934;SDS011;38802;50.198;19.796;2022-07-24T10:01:26;4.10;;;2.60;;
52934;SDS011;38802;50.198;19.796;2022-07-24T10:03:55;3.60;;;2.60;;
52934;SDS011;38802;50.198;19.796;2022-07-24T10:06:23;4.20;;;3.00;;
52934;SDS011;38802;50.198;19.796;2022-07-24T10:08:52;3.50;;;2.80;;
52934;SDS011;38802;50.198;19.796;2022-07-24T10:11:20;3.40;;;3.10;;
52934;SDS011;38802;50.198;19.796;2022-07-24T10:13:48;8.60;;;3.90;;
52934;SDS011;38802;50.198;19.796;2022-07-24T10:21:30;6.60;;;4.10;;
52934;SDS011;38802;50.198;19.796;2022-07-24T10:27:05;4.60;;;4.10;;
52934;SDS011;38802;50.198;19.796;2022-07-24T10:29:51;4.80;;;3.50;;
52934;SDS011;38802;50.198;19.796;2022-07-24T10:32:20;3.70;;;3.40;;
52934;SDS011;38802;50.198;19.796;2022-07-24T10:34:51;3.40;;;3.10;;
52934;SDS011;38802;50.198;19.796;2022-07-24T10:37:39;4.60;;;3.20;;
52934;SDS011;38802;50.198;19.796;2022-07-24T10:45:35;4.20;;;3.40;;
52934;SDS011;38802;50.198;19.796;2022-07-24T11:06:45;7.40;;;6.70;;
52934;SDS011;38802;50.198;19.796;2022-07-24T11:09:14;6.70;;;6.20;;
52934;SDS011;38802;50.198;19.796;2022-07-24T11:14:22;9.70;;;6.70;;
52934;SDS011;38802;50.198;19.796;2022-07-24T11:20:13;8.20;;;7.30;;
52934;SDS011;38802;50.198;19.796;2022-07-24T11:25:14;7.80;;;7.10;;
52934;SDS011;38802;50.198;19.796;2022-07-24T11:27:51;7.40;;;6.50;;
52934;SDS011;38802;50.198;19.796;2022-07-24T11:30:25;6.50;;;5.90;;
52934;SDS011;38802;50.198;19.796;2022-07-24T11:32:54;6.30;;;5.70;;
52934;SDS011;38802;50.198;19.796;2022-07-24T11:35:29;7.50;;;5.70;;
52934;SDS011;38802;50.198;19.796;2022-07-24T11:37:59;6.30;;;5.60;;
52934;SDS011;38802;50.198;19.796;2022-07-24T11:40:28;5.80;;;5.40;;
52934;SDS011;38802;50.198;19.796;2022-07-24T11:42:56;6.90;;;5.20;;
52934;SDS011;38802;50.198;19.796;2022-07-24T11:45:26;5.90;;;5.50;;
52934;SDS011;38802;50.198;19.796;2022-07-24T11:47:53;6.10;;;4.80;;
52934;SDS011;38802;50.198;19.796;2022-07-24T11:50:25;5.30;;;4.80;;
52934;SDS011;38802;50.198;19.796;2022-07-24T11:52:53;5.20;;;4.60;;
52934;SDS011;38802;50.198;19.796;2022-07-24T11:55:22;5.50;;;5.00;;
52934;SDS011;38802;50.198;19.796;2022-07-24T11:57:54;5.50;;;5.10;;
52934;SDS011;38802;50.198;19.796;2022-07-24T12:00:42;5.40;;;4.90;;
52934;SDS011;38802;50.198;19.796;2022-07-24T12:03:09;8.80;;;5.40;;
52934;SDS011;38802;50.198;19.796;2022-07-24T12:05:37;6.20;;;4.80;;
52934;SDS011;38802;50.198;19.796;2022-07-24T12:08:14;5.60;;;5.10;;
52934;SDS011;38802;50.198;19.796;2022-07-24T12:10:44;5.60;;;5.00;;
52934;SDS011;38802;50.198;19.796;2022-07-24T12:13:11;5.70;;;5.20;;
52934;SDS011;38802;50.198;19.796;2022-07-24T12:15:39;4.20;;;3.90;;
52934;SDS011;38802;50.198;19.796;2022-07-24T12:18:07;4.80;;;4.00;;
52934;SDS011;38802;50.198;19.796;2022-07-24T12:20:42;5.80;;;4.50;;
52934;SDS011;38802;50.198;19.796;2022-07-24T12:23:11;9.70;;;5.40;;
52934;SDS011;38802;50.198;19.796;2022-07-24T12:25:41;5.50;;;4.70;;
52934;SDS011;38802;50.198;19.796;2022-07-24T12:28:19;5.10;;;4.60;;
52934;SDS011;38802;50.198;19.796;2022-07-24T12:30:50;6.90;;;5.50;;
52934;SDS011;38802;50.198;19.796;2022-07-24T12:33:27;5.10;;;4.60;;
52934;SDS011;38802;50.198;19.796;2022-07-24T12:35:56;7.90;;;5.40;;
52934;SDS011;38802;50.198;19.796;2022-07-24T12:38:36;7.00;;;5.60;;
52934;SDS011;38802;50.198;19.796;2022-07-24T12:41:04;4.90;;;4.50;;
52934;SDS011;38802;50.198;19.796;2022-07-24T12:43:52;5.50;;;4.30;;
52934;SDS011;38802;50.198;19.796;2022-07-24T12:46:24;4.50;;;4.10;;
52934;SDS011;38802;50.198;19.796;2022-07-24T12:51:54;5.50;;;4.50;;
52934;SDS011;38802;50.198;19.796;2022-07-24T12:54:30;5.30;;;4.40;;
52934;SDS011;38802;50.198;19.796;2022-07-24T12:57:01;5.90;;;4.20;;
52934;SDS011;38802;50.198;19.796;2022-07-24T12:59:43;4.50;;;4.10;;
52934;SDS011;38802;50.198;19.796;2022-07-24T13:02:21;6.00;;;4.60;;
52934;SDS011;38802;50.198;19.796;2022-07-24T13:04:54;4.50;;;4.10;;
52934;SDS011;38802;50.198;19.796;2022-07-24T13:07:25;6.50;;;4.00;;
52934;SDS011;38802;50.198;19.796;2022-07-24T13:09:52;4.70;;;4.20;;
52934;SDS011;38802;50.198;19.796;2022-07-24T13:12:20;5.80;;;3.40;;
52934;SDS011;38802;50.198;19.796;2022-07-24T13:14:48;4.30;;;4.00;;
52934;SDS011;38802;50.198;19.796;2022-07-24T13:17:17;5.50;;;3.40;;
52934;SDS011;38802;50.198;19.796;2022-07-24T13:19:46;4.10;;;3.70;;
52934;SDS011;38802;50.198;19.796;2022-07-24T13:22:15;6.00;;;3.70;;
52934;SDS011;38802;50.198;19.796;2022-07-24T13:24:43;3.80;;;3.50;;
52934;SDS011;38802;50.198;19.796;2022-07-24T13:27:10;5.60;;;3.60;;
52934;SDS011;38802;50.198;19.796;2022-07-24T13:29:43;4.00;;;3.40;;
52934;SDS011;38802;50.198;19.796;2022-07-24T13:32:10;4.00;;;3.70;;
52934;SDS011;38802;50.198;19.796;2022-07-24T13:34:37;9.20;;;3.40;;
52934;SDS011;38802;50.198;19.796;2022-07-24T13:37:05;3.60;;;3.30;;
52934;SDS011;38802;50.198;19.796;2022-07-24T13:39:33;3.90;;;3.60;;
52934;SDS011;38802;50.198;19.796;2022-07-24T13:42:03;4.90;;;3.70;;
52934;SDS011;38802;50.198;19.796;2022-07-24T13:44:30;3.10;;;2.90;;
52934;SDS011;38802;50.198;19.796;2022-07-24T13:46:58;5.00;;;3.40;;
52934;SDS011;38802;50.198;19.796;2022-07-24T13:49:24;3.90;;;3.50;;
52934;SDS011;38802;50.198;19.796;2022-07-24T13:51:52;5.00;;;3.70;;
52934;SDS011;38802;50.198;19.796;2022-07-24T13:54:19;4.00;;;3.40;;
52934;SDS011;38802;50.198;19.796;2022-07-24T13:56:46;3.70;;;3.10;;
52934;SDS011;38802;50.198;19.796;2022-07-24T13:59:13;4.00;;;3.30;;
52934;SDS011;38802;50.198;19.796;2022-07-24T14:01:39;6.80;;;2.90;;
52934;SDS011;38802;50.198;19.796;2022-07-24T14:04:06;5.00;;;3.20;;
52934;SDS011;38802;50.198;19.796;2022-07-24T14:06:54;6.10;;;3.40;;
52934;SDS011;38802;50.198;19.796;2022-07-24T14:09:21;5.50;;;2.90;;
52934;SDS011;38802;50.198;19.796;2022-07-24T14:11:50;3.20;;;2.50;;
52934;SDS011;38802;50.198;19.796;2022-07-24T14:14:17;4.10;;;2.70;;
52934;SDS011;38802;50.198;19.796;2022-07-24T14:16:44;3.30;;;2.70;;
52934;SDS011;38802;50.198;19.796;2022-07-24T14:19:11;3.70;;;2.70;;
52934;SDS011;38802;50.198;19.796;2022-07-24T14:21:38;3.40;;;2.80;;
52934;SDS011;38802;50.198;19.796;2022-07-24T14:24:05;4.70;;;2.80;;
52934;SDS011;38802;50.198;19.796;2022-07-24T14:29:08;4.20;;;2.60;;
52934;SDS011;38802;50.198;19.796;2022-07-24T14:31:34;3.50;;;2.20;;
52934;SDS011;38802;50.198;19.796;2022-07-24T14:34:01;2.00;;;1.90;;
52934;SDS011;38802;50.198;19.796;2022-07-24T14:36:30;3.50;;;2.10;;
52934;SDS011;38802;50.198;19.796;2022-07-24T14:38:59;2.70;;;2.10;;
52934;SDS011;38802;50.198;19.796;2022-07-24T14:41:26;6.00;;;2.80;;
52934;SDS011;38802;50.198;19.796;2022-07-24T14:43:53;2.80;;;2.40;;
52934;SDS011;38802;50.198;19.796;2022-07-24T14:46:20;2.80;;;2.40;;
52934;SDS011;38802;50.198;19.796;2022-07-24T14:48:47;2.70;;;2.20;;
52934;SDS011;38802;50.198;19.796;2022-07-24T14:51:14;3.70;;;2.10;;
52934;SDS011;38802;50.198;19.796;2022-07-24T14:53:41;2.20;;;1.90;;
52934;SDS011;38802;50.198;19.796;2022-07-24T14:56:07;4.40;;;2.20;;
52934;SDS011;38802;50.198;19.796;2022-07-24T14:58:34;2.70;;;2.00;;
52934;SDS011;38802;50.198;19.796;2022-07-24T15:01:02;3.40;;;1.90;;
52934;SDS011;38802;50.198;19.796;2022-07-24T15:03:29;3.40;;;1.80;;
52934;SDS011;38802;50.198;19.796;2022-07-24T15:05:56;4.60;;;2.20;;
52934;SDS011;38802;50.198;19.796;2022-07-24T15:08:23;2.30;;;2.10;;
52934;SDS011;38802;50.198;19.796;2022-07-24T15:10:51;2.00;;;1.80;;
52934;SDS011;38802;50.198;19.796;2022-07-24T15:13:18;2.10;;;1.80;;
52934;SDS011;38802;50.198;19.796;2022-07-24T15:15:44;2.70;;;2.50;;
52934;SDS011;38802;50.198;19.796;2022-07-24T15:18:11;5.50;;;3.60;;
52934;SDS011;38802;50.198;19.796;2022-07-24T15:20:38;5.50;;;2.20;;